Date,TemperatureHighF,TemperatureAvgF,TemperatureLowF,DewpointHighF,DewpointAvgF,DewpointLowF,HumidityHigh,HumidityAvg,HumidityLow,PressureMaxIn,PressureMinIn,WindSpeedMaxMPH,WindSpeedAvgMPH,GustSpeedMaxMPH,PrecipitationSumIn
2013-5-1,63.6,49.6,36.6,43.6,37.1,32.8,92,66,32,30.33,30.17,3,1,6,0.00
2013-5-2,65.8,51.8,36.4,37.0,30.6,18.1,85,50,18,30.24,30.17,3,1,8,0.00
2013-5-3,61.6,43.4,36.3,41.7,36.4,33.0,90,77,47,30.20,30.15,2,0,3,0.00
2013-5-5,63.0,58.8,54.2,51.6,49.8,47.5,78,72,66,30.19,30.17,3,1,6,0.00
2013-5-6,72.5,59.5,50.0,53.4,47.6,43.4,89,67,44,30.19,30.07,4,1,7,0.00
2013-5-7,74.8,59.9,42.7,49.7,45.0,40.2,92,62,31,30.10,29.87,4,1,9,0.00
2013-5-8,62.4,55.9,48.3,54.2,50.0,44.9,94,81,66,29.87,29.71,6,2,12,0.04
2013-5-9,57.1,49.3,42.7,48.0,43.6,40.3,93,82,55,29.86,29.70,9,4,22,0.06
2013-5-10,63.7,54.1,47.8,50.4,47.1,44.6,90,78,54,29.96,29.71,8,4,13,0.02
2013-5-11,56.4,49.1,41.7,51.8,44.2,39.5,95,84,59,29.95,29.83,7,3,14,0.27
2013-5-12,59.4,49.4,40.6,50.4,44.1,39.0,100,83,50,30.04,29.93,6,3,11,0.03
2013-5-13,59.6,52.4,46.3,50.3,44.1,38.1,95,75,47,29.95,29.83,8,4,18,0.02
2013-5-14,52.6,47.4,43.6,47.2,43.2,40.0,95,86,66,29.85,29.21,12,3,24,0.28
2013-5-15,57.1,47.2,42.1,45.2,41.1,37.6,93,80,57,29.57,29.16,12,4,21,0.12
2013-5-16,60.7,49.5,37.2,47.3,40.5,35.9,97,74,47,29.58,29.49,5,1,9,0.00
2013-5-17,53.9,47.7,39.2,45.4,42.3,37.3,95,82,69,29.84,29.58,2,0,5,0.00
2013-5-18,60.3,53.2,45.6,46.8,45.0,42.8,91,75,58,29.83,29.74,3,1,8,0.00
2013-5-19,66.8,56.4,46.5,51.0,47.5,43.9,92,74,54,29.92,29.80,3,1,8,0.00
2013-5-20,62.1,56.7,50.4,57.9,52.9,47.6,92,87,82,29.93,29.87,1,0,3,0.02
2013-5-21,60.0,56.2,51.8,56.3,51.5,48.2,90,84,75,30.10,29.93,2,0,6,0.00
2013-5-22,58.9,52.6,46.8,50.2,45.2,36.5,91,77,54,30.12,30.04,3,1,9,0.00
2013-5-23,53.1,46.5,41.3,41.1,37.7,33.2,83,72,50,30.04,29.91,4,2,8,0.02
2013-5-24,47.6,43.7,41.1,45.5,40.5,36.4,94,89,79,30.03,29.65,6,2,15,0.25
2013-5-25,59.7,49.8,41.1,44.1,41.1,39.2,95,74,48,30.19,30.04,2,0,6,0.00
2013-5-26,69.3,55.1,40.2,44.4,40.7,37.2,91,62,35,30.16,29.99,4,1,7,0.00
2013-5-27,64.1,53.8,40.8,45.8,40.8,32.2,90,63,33,29.98,29.64,9,3,22,0.00
2013-5-28,52.1,50.1,48.2,50.0,47.5,43.4,95,91,75,29.64,29.50,2,0,8,0.54
2013-5-29,56.6,51.0,43.7,52.2,48.1,42.3,98,90,76,29.79,29.58,2,0,4,0.01
2013-5-30,58.4,54.3,51.8,54.1,51.6,49.6,96,91,83,30.02,29.77,2,0,4,0.14
2013-5-31,71.1,59.6,51.8,57.4,52.4,48.8,90,78,55,30.14,30.01,1,0,4,0.00